Morning Shadows Ranch, CO

8:25 PM MDT on September 14, 2014 (GMT -0600)
KCOSOUTH6 | Change Station
CLOSE
Current Station
Personal Weather Station
Location: South Fork, CO
Elevation: 8225 ft
Nearby Weather Stations

Elev 8225 ft 37.67 °N, 106.64 °W | Updated 38 seconds ago

Partly Cloudy
Partly Cloudy
57.3 °F
Feels Like 57.3 °F
N
7.9
Wind Variable Wind from SSW
Gusts 11.0 mph

Today
High -- | Low -- °F
--% Chance of Precip.
Yesterday
High -- | Low -- °F
Precip. -- in
6:47 AM 7:15 PM
Waning Gibbous, 60% visible
Pressure 30.01 in
Visibility 10.0 miles
Clouds Clear
Dew Point 43 °F
Humidity 59%
Rainfall 0.00 in
Snow Depth 0 in
UV 0 out of 12
Pollen 5.80 out of 12
Air Quality Not available.
Flu Activity Not available.
METAR KALS 150152Z AUTO 32009KT 10SM CLR 19/03 A3023 RMK AO2 SLP160 T01890033

More Conditions Fewer Conditions

Pressure 30.01 in
Visibility 10.0 miles
Clouds Clear
Dew Point 43 °F
Humidity 59%
Rainfall 0.00 in
Snow Depth 0 in
UV 0 out of 12
Pollen 5.80 out of 12
Air Quality Not available.
Flu Activity Not available.
METAR KALS 150152Z AUTO 32009KT 10SM CLR 19/03 A3023 RMK AO2 SLP160 T01890033

More Conditions Fewer Conditions

10-Day Weather Forecast

Almanac

Astronomy

Sep. 14, 2014 Rise Set
Actual Time 6:47 AM MDT 7:15 PM MDT
Civil Twilight 6:20 AM MDT 7:41 PM MDT
Nautical Twilight 5:49 AM MDT 8:12 PM MDT
Astronomical Twilight 5:18 AM MDT 8:44 PM MDT
Moon 11:16 PM MDT (9/14) 12:49 PM MDT (9/14)
Length of Visible Light 13h 20m
Length of Day
12h 28m
Tomorrow will be 2m 23s shorter.
Waning Gibbous, 60% of the Moon is Illuminated
Today
Waning Gibbous
Sep 15
Last Quarter
Sep 24
New
Oct 1
First Quarter
Oct 8
Full

Today's Extremes

State Highs State Lows

Community

WunderPhotos

Upload Photos

1,753,381 photos uploaded!

Nearby

Snow Depth

Station Depth Elevation
Grayback 0 in 11620 ft
Wolf Creek Summit 0 in 11000 ft
Upper San Juan 0 in 10130 ft
Cochetopa Pass 0 in 10020 ft
Slumgullion 0 in 11440 ft

Earthquake Activity

City Distance Mag. Time & Date
No recent earthquake activity has been reported nearby.
Minimum magnitude displayed is 2.5.

Coastal Water Temperatures

Place Temperature
No Stations Reporting

Nearby Weather Stations